Time;durP1;ratioP1;P1;durP2;ratioP2;P2;SDS_P1;SDS_P2;PMS_P1;PMS_P2;Temp;Humidity;BMP_temperature;BMP_pressure;BME280_temperature;BME280_humidity;BME280_pressure;Samples;Min_cycle;Max_cycle;Signal;HPM_P1;HPM_P2
2020/12/22 00:02:10;;;;;;;14.70;11.33;;;;;;;;;;5061691;28;20653;-63
2020/12/22 00:04:35;;;;;;;16.00;11.07;;;;;;;;;;5067048;28;20221;-62
2020/12/22 00:07:00;;;;;;;13.43;10.80;;;;;;;;;;5068438;28;20270;-63
2020/12/22 00:09:25;;;;;;;12.47;10.27;;;;;;;;;;5062393;28;20630;-61
2020/12/22 00:11:51;;;;;;;13.50;10.40;;;;;;;;;;5061625;28;20247;-62
2020/12/22 00:14:16;;;;;;;12.13;10.33;;;;;;;;;;5067994;28;20299;-62
2020/12/22 00:16:41;;;;;;;12.90;10.90;;;;;;;;;;5053594;28;20288;-62
2020/12/22 00:19:06;;;;;;;12.90;11.07;;;;;;;;;;5067025;28;20308;-63
2020/12/22 00:21:33;;;;;;;14.17;11.00;;;;;;;;;;5067109;28;20617;-62
2020/12/22 00:23:59;;;;;;;13.17;10.77;;;;;;;;;;5055057;28;20335;-63
2020/12/22 00:26:24;;;;;;;14.80;11.90;;;;;;;;;;5055525;28;20454;-61
2020/12/22 00:28:49;;;;;;;13.80;11.17;;;;;;;;;;5065597;28;20505;-62
2020/12/22 00:31:14;;;;;;;15.27;11.10;;;;;;;;;;5067435;28;20220;-63
2020/12/22 00:33:40;;;;;;;12.97;10.13;;;;;;;;;;5055920;28;20316;-62
2020/12/22 00:36:06;;;;;;;11.63;10.00;;;;;;;;;;5059623;28;20228;-62
2020/12/22 00:38:32;;;;;;;14.33;12.50;;;;;;;;;;5066819;28;20220;-61
2020/12/22 00:40:57;;;;;;;15.00;11.20;;;;;;;;;;5060589;28;20981;-62
2020/12/22 00:43:22;;;;;;;13.17;11.00;;;;;;;;;;5065804;28;20312;-61
2020/12/22 00:45:47;;;;;;;13.80;11.20;;;;;;;;;;5066230;28;20220;-61
2020/12/22 00:48:12;;;;;;;13.10;10.93;;;;;;;;;;5061509;28;20289;-63
2020/12/22 00:50:39;;;;;;;11.87;10.40;;;;;;;;;;5059697;28;20229;-63
2020/12/22 00:53:04;;;;;;;13.80;10.73;;;;;;;;;;5065988;28;20216;-63
2020/12/22 00:55:29;;;;;;;14.80;10.50;;;;;;;;;;5067411;28;20823;-63
2020/12/22 00:57:54;;;;;;;14.60;11.13;;;;;;;;;;5060089;28;20289;-62
2020/12/22 01:00:21;;;;;;;14.00;10.97;;;;;;;;;;5060932;28;20304;-63
2020/12/22 01:02:46;;;;;;;14.93;11.30;;;;;;;;;;5066615;28;20264;-62
2020/12/22 01:05:11;;;;;;;14.33;10.87;;;;;;;;;;5066237;28;20437;-63
2020/12/22 01:07:37;;;;;;;13.90;12.40;;;;;;;;;;5059592;28;20630;-64
2020/12/22 01:10:03;;;;;;;15.00;10.73;;;;;;;;;;5060556;28;20308;-63
2020/12/22 01:12:28;;;;;;;15.60;11.80;;;;;;;;;;5066187;28;20227;-62
2020/12/22 01:14:53;;;;;;;15.40;12.27;;;;;;;;;;5066119;28;20524;-63
2020/12/22 01:17:19;;;;;;;13.77;11.73;;;;;;;;;;5042704;28;493813;-63
2020/12/22 01:19:44;;;;;;;14.70;11.47;;;;;;;;;;5061354;28;20221;-62
2020/12/22 01:22:09;;;;;;;13.83;11.67;;;;;;;;;;5067295;28;20235;-63
2020/12/22 01:24:34;;;;;;;11.53;10.07;;;;;;;;;;5065676;28;20697;-62
2020/12/22 01:27:00;;;;;;;16.93;11.97;;;;;;;;;;5061199;28;20273;-62
2020/12/22 01:29:25;;;;;;;17.10;12.30;;;;;;;;;;5061255;28;20259;-63
2020/12/22 01:31:50;;;;;;;16.73;12.60;;;;;;;;;;5067256;28;20233;-63
2020/12/22 01:34:16;;;;;;;17.00;12.50;;;;;;;;;;5067667;28;20219;-61
2020/12/22 01:36:41;;;;;;;14.47;12.23;;;;;;;;;;5047349;28;20336;-61
2020/12/22 01:39:07;;;;;;;14.40;11.80;;;;;;;;;;5060636;28;20596;-61
2020/12/22 01:41:32;;;;;;;12.50;11.30;;;;;;;;;;5067269;28;20235;-61
2020/12/22 01:44:09;;;;;;;13.07;11.67;;;;;;;;;;5065878;28;20232;-62
2020/12/22 01:46:38;;;;;;;16.80;12.33;;;;;;;;;;5060461;28;20307;-61
2020/12/22 01:49:08;;;;;;;14.67;11.53;;;;;;;;;;5060224;28;20465;-62
2020/12/22 01:51:33;;;;;;;16.70;12.33;;;;;;;;;;5065888;28;20815;-62
2020/12/22 01:54:00;;;;;;;13.50;12.10;;;;;;;;;;5067292;28;20455;-62
2020/12/22 01:56:26;;;;;;;13.40;12.00;;;;;;;;;;5060938;28;20538;-62
2020/12/22 01:58:52;;;;;;;14.50;11.90;;;;;;;;;;5059714;28;20449;-62
2020/12/22 02:01:17;;;;;;;15.40;12.50;;;;;;;;;;5066659;28;20551;-62
2020/12/22 02:03:42;;;;;;;17.63;12.67;;;;;;;;;;5066301;28;20266;-62
2020/12/22 02:06:08;;;;;;;13.07;11.30;;;;;;;;;;5060437;28;20555;-61
2020/12/22 02:08:33;;;;;;;14.70;11.87;;;;;;;;;;5059579;28;20231;-61
2020/12/22 02:10:58;;;;;;;13.43;11.13;;;;;;;;;;5066800;28;20320;-62
2020/12/22 02:13:23;;;;;;;17.57;11.10;;;;;;;;;;5066753;28;20655;-63
2020/12/22 02:15:49;;;;;;;13.77;12.13;;;;;;;;;;5060673;28;20236;-62
2020/12/22 02:18:14;;;;;;;15.97;11.97;;;;;;;;;;5051518;28;20231;-62
2020/12/22 02:20:40;;;;;;;16.77;12.40;;;;;;;;;;5060581;28;20567;-62
2020/12/22 02:23:05;;;;;;;17.90;13.23;;;;;;;;;;5067848;28;20222;-63
2020/12/22 02:25:30;;;;;;;13.00;11.30;;;;;;;;;;5056205;28;20452;-63
2020/12/22 02:27:56;;;;;;;15.67;13.20;;;;;;;;;;5069669;28;20249;-63
2020/12/22 02:30:21;;;;;;;15.80;13.00;;;;;;;;;;5064911;28;20241;-62
2020/12/22 02:32:46;;;;;;;17.83;12.80;;;;;;;;;;5062789;28;20228;-62
2020/12/22 02:35:12;;;;;;;18.47;13.30;;;;;;;;;;5068608;28;20259;-62
2020/12/22 02:37:37;;;;;;;13.90;12.40;;;;;;;;;;5069225;28;20239;-62
2020/12/22 02:40:02;;;;;;;16.80;13.03;;;;;;;;;;5057338;28;20304;-63
2020/12/22 02:42:28;;;;;;;14.90;13.23;;;;;;;;;;5070080;28;20235;-63
2020/12/22 02:44:53;;;;;;;15.10;12.57;;;;;;;;;;5063069;28;20688;-63
2020/12/22 02:47:18;;;;;;;16.73;13.77;;;;;;;;;;5063487;28;20217;-62
2020/12/22 02:49:47;;;;;;;16.53;13.03;;;;;;;;;;5050808;28;20254;-61
2020/12/22 02:52:12;;;;;;;14.70;11.43;;;;;;;;;;5062955;28;20236;-60
2020/12/22 02:54:37;;;;;;;16.40;12.40;;;;;;;;;;5070715;28;20457;-60
2020/12/22 02:57:03;;;;;;;15.57;13.97;;;;;;;;;;5071133;28;20235;-60
2020/12/22 02:59:28;;;;;;;15.90;12.83;;;;;;;;;;5064943;28;20230;-60
2020/12/22 03:01:53;;;;;;;17.33;13.07;;;;;;;;;;5056365;28;20221;-60
2020/12/22 03:04:19;;;;;;;14.40;12.00;;;;;;;;;;5065770;28;20300;-60
2020/12/22 03:06:44;;;;;;;15.20;11.70;;;;;;;;;;5070360;28;20579;-60
2020/12/22 03:09:10;;;;;;;17.63;12.33;;;;;;;;;;5059347;28;20214;-60
2020/12/22 03:11:35;;;;;;;16.70;12.77;;;;;;;;;;5069126;28;20223;-61
2020/12/22 03:14:01;;;;;;;18.20;14.10;;;;;;;;;;5063712;28;20465;-60
2020/12/22 03:16:27;;;;;;;17.93;13.33;;;;;;;;;;5065692;28;20580;-59
2020/12/22 03:18:52;;;;;;;21.63;15.43;;;;;;;;;;5067053;28;20240;-60
2020/12/22 03:21:17;;;;;;;19.90;14.67;;;;;;;;;;5065821;28;20649;-60
2020/12/22 03:23:43;;;;;;;20.90;14.30;;;;;;;;;;5070762;28;20221;-60
2020/12/22 03:26:08;;;;;;;21.10;15.63;;;;;;;;;;5057036;28;20698;-60
2020/12/22 03:28:34;;;;;;;20.20;14.10;;;;;;;;;;5068938;28;20539;-60
2020/12/22 03:30:59;;;;;;;24.13;15.83;;;;;;;;;;5071110;28;20592;-60
2020/12/22 03:33:24;;;;;;;25.57;15.53;;;;;;;;;;5064329;28;20315;-59
2020/12/22 03:35:50;;;;;;;24.60;15.53;;;;;;;;;;5077251;28;20231;-60
2020/12/22 03:38:15;;;;;;;18.40;14.20;;;;;;;;;;5064345;28;20222;-60
2020/12/22 03:40:40;;;;;;;20.90;15.00;;;;;;;;;;5075667;28;20288;-60
2020/12/22 03:43:05;;;;;;;29.27;16.83;;;;;;;;;;5063811;28;20551;-60
2020/12/22 03:45:31;;;;;;;19.07;14.73;;;;;;;;;;5065954;28;20307;-60
2020/12/22 03:47:56;;;;;;;21.77;14.97;;;;;;;;;;5070084;28;20234;-60
2020/12/22 03:50:21;;;;;;;21.20;16.20;;;;;;;;;;5067854;28;20287;-59
2020/12/22 03:52:46;;;;;;;22.27;15.07;;;;;;;;;;5063043;28;20631;-59
2020/12/22 03:55:12;;;;;;;25.37;17.33;;;;;;;;;;5066072;28;20283;-59
2020/12/22 03:57:37;;;;;;;20.80;16.47;;;;;;;;;;5069711;28;20564;-60
2020/12/22 04:00:04;;;;;;;18.03;13.60;;;;;;;;;;5066947;28;20307;-59
2020/12/22 04:02:30;;;;;;;19.67;14.50;;;;;;;;;;5063308;28;20221;-58
2020/12/22 04:04:55;;;;;;;18.30;13.83;;;;;;;;;;5066014;28;20459;-59
2020/12/22 04:07:20;;;;;;;30.07;15.83;;;;;;;;;;5070173;28;20302;-59
2020/12/22 04:09:45;;;;;;;25.47;15.80;;;;;;;;;;5066337;28;20569;-59
2020/12/22 04:12:11;;;;;;;41.03;15.47;;;;;;;;;;5062830;28;20307;-59
2020/12/22 04:14:36;;;;;;;25.40;14.47;;;;;;;;;;5065663;28;20653;-60
2020/12/22 04:17:01;;;;;;;28.57;16.70;;;;;;;;;;5070100;28;20308;-59
2020/12/22 04:19:26;;;;;;;30.10;15.90;;;;;;;;;;5065990;28;20224;-59
2020/12/22 04:21:52;;;;;;;22.10;15.10;;;;;;;;;;5063211;28;20234;-59
2020/12/22 04:24:17;;;;;;;29.57;16.00;;;;;;;;;;5067304;28;20613;-59
2020/12/22 04:26:42;;;;;;;60.90;22.03;;;;;;;;;;5060321;28;20230;-59
2020/12/22 04:29:07;;;;;;;22.93;14.17;;;;;;;;;;5065802;28;20726;-59
2020/12/22 04:31:33;;;;;;;26.70;15.40;;;;;;;;;;5072559;28;20255;-59
2020/12/22 04:33:58;;;;;;;21.10;14.50;;;;;;;;;;5068954;28;20216;-60
2020/12/22 04:36:24;;;;;;;46.97;18.00;;;;;;;;;;5063225;28;20229;-59
2020/12/22 04:38:50;;;;;;;22.30;14.90;;;;;;;;;;5066549;28;20220;-60
2020/12/22 04:41:18;;;;;;;21.07;15.53;;;;;;;;;;5068362;28;20954;-60
2020/12/22 04:43:44;;;;;;;21.97;16.20;;;;;;;;;;5065581;28;20546;-60
2020/12/22 04:46:10;;;;;;;35.30;17.60;;;;;;;;;;5062746;28;20451;-59
2020/12/22 04:48:38;;;;;;;33.43;17.33;;;;;;;;;;5066248;28;20513;-60
2020/12/22 04:51:06;;;;;;;19.90;14.27;;;;;;;;;;5058266;28;20458;-60
2020/12/22 04:53:32;;;;;;;23.20;15.50;;;;;;;;;;5067155;28;20821;-59
2020/12/22 04:55:58;;;;;;;18.43;13.83;;;;;;;;;;5068609;28;20448;-59
2020/12/22 04:58:24;;;;;;;25.20;14.37;;;;;;;;;;5065455;28;20530;-60
2020/12/22 05:00:50;;;;;;;31.20;15.40;;;;;;;;;;5061015;28;20812;-60
2020/12/22 05:03:17;;;;;;;24.10;14.30;;;;;;;;;;5067134;28;20224;-60
2020/12/22 05:05:42;;;;;;;21.23;15.27;;;;;;;;;;5067913;28;20481;-59
2020/12/22 05:08:07;;;;;;;17.17;14.00;;;;;;;;;;5064767;28;20806;-59
2020/12/22 05:10:32;;;;;;;23.37;15.57;;;;;;;;;;5070939;28;20358;-59
2020/12/22 05:12:58;;;;;;;17.50;13.93;;;;;;;;;;5064048;28;20572;-59
2020/12/22 05:15:26;;;;;;;31.13;16.37;;;;;;;;;;5062202;28;20264;-59
2020/12/22 05:17:51;;;;;;;18.00;14.27;;;;;;;;;;5066496;28;20225;-59
2020/12/22 05:20:18;;;;;;;14.77;11.70;;;;;;;;;;5069043;28;20509;-59
2020/12/22 05:22:47;;;;;;;14.90;12.23;;;;;;;;;;5063646;28;20221;-59
2020/12/22 05:25:19;;;;;;;23.07;13.27;;;;;;;;;;5060135;28;20467;-59
2020/12/22 05:27:47;;;;;;;17.33;11.07;;;;;;;;;;5068417;28;20463;-60
2020/12/22 05:30:15;;;;;;;19.50;12.50;;;;;;;;;;5061663;28;20568;-59
2020/12/22 05:32:42;;;;;;;18.30;12.47;;;;;;;;;;5061823;28;20434;-59
2020/12/22 05:35:07;;;;;;;23.97;12.20;;;;;;;;;;5069028;28;20950;-59
2020/12/22 05:37:38;;;;;;;26.43;12.97;;;;;;;;;;5069182;28;20466;-59
2020/12/22 05:40:07;;;;;;;20.73;12.67;;;;;;;;;;5049092;28;20227;-60
2020/12/22 05:42:33;;;;;;;16.20;12.37;;;;;;;;;;5062159;28;20492;-60
2020/12/22 05:44:58;;;;;;;20.60;13.50;;;;;;;;;;5066800;28;20457;-60
2020/12/22 05:47:23;;;;;;;14.00;11.23;;;;;;;;;;5069110;28;20542;-60
2020/12/22 05:49:53;;;;;;;32.87;13.83;;;;;;;;;;5062710;28;20644;-60
2020/12/22 05:52:26;;;;;;;18.10;12.27;;;;;;;;;;5066002;28;20665;-60
2020/12/22 05:54:52;;;;;;;14.27;10.87;;;;;;;;;;5070637;28;20466;-59
2020/12/22 05:57:26;;;;;;;21.27;11.30;;;;;;;;;;5073064;28;20453;-59
2020/12/22 05:59:52;;;;;;;19.23;12.67;;;;;;;;;;5068724;28;20745;-59
2020/12/22 06:02:28;;;;;;;13.10;10.13;;;;;;;;;;5065775;28;20772;-60
2020/12/22 06:04:56;;;;;;;16.77;10.60;;;;;;;;;;5068586;28;20441;-59
2020/12/22 06:07:21;;;;;;;32.60;13.77;;;;;;;;;;5072340;28;20446;-59
2020/12/22 06:09:47;;;;;;;15.90;10.23;;;;;;;;;;5069497;28;20494;-59
2020/12/22 06:12:12;;;;;;;15.43;10.90;;;;;;;;;;5064203;28;20224;-59
2020/12/22 06:14:42;;;;;;;14.77;9.07;;;;;;;;;;5068300;28;20304;-59
2020/12/22 06:17:10;;;;;;;17.73;9.93;;;;;;;;;;5071568;28;20581;-59
2020/12/22 06:19:36;;;;;;;13.03;9.87;;;;;;;;;;5070166;28;20453;-59
2020/12/22 06:22:02;;;;;;;18.20;11.07;;;;;;;;;;5064986;28;20477;-59
2020/12/22 06:24:27;;;;;;;18.03;10.63;;;;;;;;;;5068880;28;20978;-59
2020/12/22 06:26:59;;;;;;;15.03;10.60;;;;;;;;;;5057398;28;20218;-59
2020/12/22 06:29:25;;;;;;;17.43;9.80;;;;;;;;;;5072362;28;20559;-60
2020/12/22 06:31:50;;;;;;;15.43;9.80;;;;;;;;;;5064507;28;20497;-59
2020/12/22 06:34:23;;;;;;;10.47;8.73;;;;;;;;;;5072643;28;20228;-61
2020/12/22 06:36:59;;;;;;;21.97;10.73;;;;;;;;;;5052426;28;20220;-60
2020/12/22 06:39:43;;;;;;;11.97;8.60;;;;;;;;;;5065150;28;20430;-60
2020/12/22 06:42:10;;;;;;;12.33;8.10;;;;;;;;;;5067729;28;20433;-60
2020/12/22 06:44:36;;;;;;;14.60;9.63;;;;;;;;;;5072712;28;20459;-59
2020/12/22 06:47:03;;;;;;;13.60;10.10;;;;;;;;;;5069143;28;20951;-60
2020/12/22 06:49:48;;;;;;;13.30;9.10;;;;;;;;;;5064921;28;20437;-60
2020/12/22 06:52:36;;;;;;;14.50;8.73;;;;;;;;;;5065442;28;20766;-60
2020/12/22 06:55:11;;;;;;;11.27;9.07;;;;;;;;;;5057591;28;20844;-60
2020/12/22 06:57:49;;;;;;;12.53;8.90;;;;;;;;;;5062084;28;20467;-60
2020/12/22 07:00:36;;;;;;;14.30;9.00;;;;;;;;;;5068581;28;20442;-60
2020/12/22 07:03:15;;;;;;;12.33;8.30;;;;;;;;;;5053257;28;20507;-60
2020/12/22 07:05:45;;;;;;;9.87;7.30;;;;;;;;;;5064787;28;20430;-60
2020/12/22 07:08:12;;;;;;;14.03;7.43;;;;;;;;;;5068030;28;20427;-59
2020/12/22 07:10:42;;;;;;;10.97;6.93;;;;;;;;;;5072061;28;20477;-60
2020/12/22 07:13:09;;;;;;;8.10;6.57;;;;;;;;;;5067246;28;20429;-60
2020/12/22 07:15:36;;;;;;;7.73;6.23;;;;;;;;;;5063517;28;20448;-59
2020/12/22 07:18:08;;;;;;;19.90;9.17;;;;;;;;;;5069868;28;20475;-60
2020/12/22 07:20:34;;;;;;;7.87;6.83;;;;;;;;;;5071221;28;20441;-60
2020/12/22 07:22:59;;;;;;;10.23;7.43;;;;;;;;;;5066338;28;20905;-59
2020/12/22 07:25:27;;;;;;;7.50;6.53;;;;;;;;;;5062610;28;20298;-60
2020/12/22 07:27:52;;;;;;;8.07;6.77;;;;;;;;;;5070781;28;20279;-60
2020/12/22 07:30:17;;;;;;;11.33;7.90;;;;;;;;;;5065332;28;20456;-60
2020/12/22 07:32:43;;;;;;;9.27;7.17;;;;;;;;;;5064455;28;20232;-60
2020/12/22 07:35:11;;;;;;;8.27;7.40;;;;;;;;;;5069000;28;20654;-60
2020/12/22 07:37:37;;;;;;;9.60;7.57;;;;;;;;;;5071367;28;20270;-60
2020/12/22 07:40:08;;;;;;;9.23;7.27;;;;;;;;;;5058119;28;20870;-59
2020/12/22 07:42:33;;;;;;;9.13;8.23;;;;;;;;;;5071663;28;20288;-60
2020/12/22 07:45:04;;;;;;;11.90;7.63;;;;;;;;;;5064910;28;20464;-60
2020/12/22 07:47:29;;;;;;;8.73;7.23;;;;;;;;;;5064324;28;20223;-60
2020/12/22 07:49:54;;;;;;;8.77;7.23;;;;;;;;;;5069859;28;20498;-60
2020/12/22 07:52:21;;;;;;;6.97;6.10;;;;;;;;;;5070905;28;20248;-60
2020/12/22 07:54:56;;;;;;;7.77;6.67;;;;;;;;;;5064998;28;20240;-60
2020/12/22 07:57:22;;;;;;;7.20;6.33;;;;;;;;;;5062847;28;20433;-60
2020/12/22 07:59:48;;;;;;;6.90;6.30;;;;;;;;;;5063050;28;20442;-60
2020/12/22 08:02:22;;;;;;;6.37;5.77;;;;;;;;;;5061539;28;20226;-60
2020/12/22 08:04:47;;;;;;;8.83;6.40;;;;;;;;;;5069789;28;20999;-59
2020/12/22 08:07:13;;;;;;;5.97;5.20;;;;;;;;;;5069785;28;20545;-60
2020/12/22 08:09:39;;;;;;;6.10;5.23;;;;;;;;;;5063565;28;20551;-60
2020/12/22 08:12:06;;;;;;;8.27;6.27;;;;;;;;;;5063108;28;20231;-60
2020/12/22 08:14:35;;;;;;;6.03;5.33;;;;;;;;;;5049440;28;20463;-59
2020/12/22 08:17:03;;;;;;;11.60;6.30;;;;;;;;;;5061589;28;20464;-60
2020/12/22 08:19:30;;;;;;;4.37;3.97;;;;;;;;;;5069348;28;20453;-59
2020/12/22 08:21:56;;;;;;;5.87;5.37;;;;;;;;;;5069984;28;20474;-59
2020/12/22 08:24:21;;;;;;;6.17;5.40;;;;;;;;;;5063155;28;20770;-59
2020/12/22 08:26:51;;;;;;;6.57;4.80;;;;;;;;;;5061550;28;20512;-59
2020/12/22 08:29:17;;;;;;;4.70;4.30;;;;;;;;;;5062503;28;20247;-59
2020/12/22 08:31:44;;;;;;;4.93;4.43;;;;;;;;;;5061690;28;20468;-59
2020/12/22 08:34:10;;;;;;;8.90;4.77;;;;;;;;;;5069731;28;20432;-60
2020/12/22 08:36:36;;;;;;;5.10;3.90;;;;;;;;;;5062963;28;20478;-59
2020/12/22 08:39:36;;;;;;;6.67;4.20;;;;;;;;;;5064005;28;20940;-60
2020/12/22 08:42:06;;;;;;;5.73;4.73;;;;;;;;;;5056915;28;20235;-60
2020/12/22 08:44:32;;;;;;;6.33;4.20;;;;;;;;;;5062920;28;20911;-59
2020/12/22 08:47:09;;;;;;;6.30;3.90;;;;;;;;;;5064525;28;20455;-59
2020/12/22 08:49:34;;;;;;;5.60;3.57;;;;;;;;;;5069608;28;21129;-60
2020/12/22 08:52:09;;;;;;;4.07;3.23;;;;;;;;;;5068195;28;20444;-59
2020/12/22 08:54:34;;;;;;;4.03;3.00;;;;;;;;;;5062102;28;20241;-59
2020/12/22 08:57:15;;;;;;;4.30;3.90;;;;;;;;;;5063660;28;20468;-60
2020/12/22 08:59:40;;;;;;;7.23;3.97;;;;;;;;;;5052251;28;20221;-60
2020/12/22 09:02:06;;;;;;;5.23;4.70;;;;;;;;;;5062306;28;20462;-59
2020/12/22 09:04:33;;;;;;;5.10;2.80;;;;;;;;;;5067899;28;20234;-59
2020/12/22 09:06:59;;;;;;;2.73;2.53;;;;;;;;;;5069455;28;20605;-59
2020/12/22 09:09:32;;;;;;;3.40;3.03;;;;;;;;;;5062366;28;20449;-60
2020/12/22 09:12:08;;;;;;;4.00;2.90;;;;;;;;;;5063007;28;20494;-59
2020/12/22 09:14:56;;;;;;;3.40;3.00;;;;;;;;;;5067051;28;20440;-60
2020/12/22 09:17:31;;;;;;;3.00;2.67;;;;;;;;;;5060821;28;20454;-60
2020/12/22 09:19:57;;;;;;;3.20;2.77;;;;;;;;;;5063606;28;20459;-60
2020/12/22 09:22:24;;;;;;;2.60;2.40;;;;;;;;;;5068804;28;20495;-61
2020/12/22 09:24:53;;;;;;;3.23;2.40;;;;;;;;;;5066073;28;20293;-60
2020/12/22 09:27:38;;;;;;;2.80;2.60;;;;;;;;;;5069074;28;20806;-60
2020/12/22 09:30:09;;;;;;;3.20;2.90;;;;;;;;;;5066595;28;20943;-60
2020/12/22 09:32:34;;;;;;;2.80;2.60;;;;;;;;;;5066696;28;20483;-60
2020/12/22 09:34:59;;;;;;;3.23;2.93;;;;;;;;;;5073392;28;20553;-59
2020/12/22 09:37:25;;;;;;;5.30;3.00;;;;;;;;;;5070478;28;20487;-59
2020/12/22 09:39:51;;;;;;;3.10;2.80;;;;;;;;;;5061794;28;20231;-60
2020/12/22 09:42:18;;;;;;;2.63;2.30;;;;;;;;;;5059629;28;20474;-61
2020/12/22 09:44:44;;;;;;;2.80;2.60;;;;;;;;;;5073105;28;20550;-60
2020/12/22 09:47:09;;;;;;;2.70;2.50;;;;;;;;;;5070803;28;20458;-61
2020/12/22 09:49:34;;;;;;;3.00;2.20;;;;;;;;;;5065000;28;20557;-60
2020/12/22 09:51:59;;;;;;;3.17;2.33;;;;;;;;;;5067597;28;20386;-61
2020/12/22 09:54:25;;;;;;;2.13;1.80;;;;;;;;;;5071909;28;20231;-61
2020/12/22 09:56:50;;;;;;;2.80;2.10;;;;;;;;;;5067534;28;20297;-60
2020/12/22 09:59:16;;;;;;;2.80;2.60;;;;;;;;;;5066891;28;20220;-60
2020/12/22 10:01:42;;;;;;;3.27;2.97;;;;;;;;;;5067730;28;20696;-61
2020/12/22 10:04:08;;;;;;;3.77;3.40;;;;;;;;;;5071595;28;20460;-60
2020/12/22 10:06:33;;;;;;;3.80;2.30;;;;;;;;;;5066973;28;20686;-61
2020/12/22 10:08:58;;;;;;;2.37;1.80;;;;;;;;;;5075675;28;20666;-61
2020/12/22 10:11:25;;;;;;;6.20;2.10;;;;;;;;;;5067134;28;20363;-60
2020/12/22 10:13:51;;;;;;;2.43;1.77;;;;;;;;;;5072275;28;20563;-60
2020/12/22 10:16:21;;;;;;;3.73;2.50;;;;;;;;;;5068527;28;20476;-60
2020/12/22 10:18:47;;;;;;;2.10;1.70;;;;;;;;;;5065247;28;20224;-61
2020/12/22 10:21:17;;;;;;;3.10;2.20;;;;;;;;;;5065955;28;20803;-61
2020/12/22 10:23:43;;;;;;;2.30;2.10;;;;;;;;;;5071364;28;20830;-61
2020/12/22 10:26:12;;;;;;;2.00;1.80;;;;;;;;;;5057550;28;20467;-60
2020/12/22 10:28:39;;;;;;;2.70;1.60;;;;;;;;;;5070660;28;20926;-62
2020/12/22 10:31:06;;;;;;;1.87;1.70;;;;;;;;;;5070695;28;20540;-61
2020/12/22 10:33:31;;;;;;;4.03;1.90;;;;;;;;;;5058287;28;20442;-61
2020/12/22 10:35:57;;;;;;;2.43;2.00;;;;;;;;;;5063705;28;20462;-61
2020/12/22 10:38:22;;;;;;;2.00;1.80;;;;;;;;;;5070668;28;20243;-60
2020/12/22 10:40:48;;;;;;;1.80;1.70;;;;;;;;;;5070493;28;20230;-60
2020/12/22 10:43:14;;;;;;;2.67;1.90;;;;;;;;;;5064322;28;20212;-61
2020/12/22 10:45:39;;;;;;;2.37;2.17;;;;;;;;;;5064214;28;20451;-60
2020/12/22 10:48:06;;;;;;;2.50;2.30;;;;;;;;;;5070120;28;20300;-60
2020/12/22 10:50:31;;;;;;;7.27;2.00;;;;;;;;;;5070502;28;20334;-61
2020/12/22 10:52:57;;;;;;;2.47;2.10;;;;;;;;;;5063982;28;20474;-60
2020/12/22 10:55:23;;;;;;;3.73;2.23;;;;;;;;;;5064136;28;20254;-60
2020/12/22 10:57:48;;;;;;;2.33;2.10;;;;;;;;;;5050066;28;20227;-60
2020/12/22 11:00:14;;;;;;;2.57;2.27;;;;;;;;;;5063786;28;20422;-60
2020/12/22 11:02:40;;;;;;;2.43;2.23;;;;;;;;;;5071005;28;20262;-60
2020/12/22 11:05:05;;;;;;;3.57;2.40;;;;;;;;;;5070496;28;20231;-60
2020/12/22 11:07:50;;;;;;;2.00;1.83;;;;;;;;;;5063265;28;20437;-60
2020/12/22 11:10:15;;;;;;;2.40;2.20;;;;;;;;;;5074772;28;20262;-61
2020/12/22 11:12:41;;;;;;;1.93;1.73;;;;;;;;;;5064289;28;20429;-61
2020/12/22 11:15:06;;;;;;;2.10;1.50;;;;;;;;;;5063895;28;20255;-61
2020/12/22 11:17:31;;;;;;;2.47;2.30;;;;;;;;;;5068785;28;20236;-60
2020/12/22 11:19:57;;;;;;;3.17;1.83;;;;;;;;;;5070946;28;20598;-61
2020/12/22 11:22:22;;;;;;;2.40;2.20;;;;;;;;;;5064726;28;20232;-60
2020/12/22 11:24:47;;;;;;;2.20;2.00;;;;;;;;;;5073763;28;20221;-61
2020/12/22 11:27:12;;;;;;;7.50;2.87;;;;;;;;;;5065962;28;20350;-61
2020/12/22 11:29:38;;;;;;;2.03;1.77;;;;;;;;;;5062853;28;20224;-60
2020/12/22 11:32:03;;;;;;;3.30;2.37;;;;;;;;;;5068602;28;20300;-61
2020/12/22 11:34:28;;;;;;;3.20;2.20;;;;;;;;;;5071455;28;20308;-61
2020/12/22 11:36:54;;;;;;;2.80;2.30;;;;;;;;;;5069016;28;20221;-61
2020/12/22 11:39:25;;;;;;;2.57;2.30;;;;;;;;;;5070456;28;20241;-61
2020/12/22 11:41:50;;;;;;;2.53;2.20;;;;;;;;;;5064852;28;20216;-61
2020/12/22 11:44:15;;;;;;;2.30;2.10;;;;;;;;;;5062969;28;20552;-61
2020/12/22 11:46:45;;;;;;;2.53;2.23;;;;;;;;;;5067768;28;20226;-61
2020/12/22 11:49:11;;;;;;;4.90;2.53;;;;;;;;;;5068822;28;20220;-61
2020/12/22 11:51:36;;;;;;;2.97;2.23;;;;;;;;;;5064630;28;20477;-62
2020/12/22 11:54:02;;;;;;;2.27;2.07;;;;;;;;;;5062685;28;20663;-61
2020/12/22 11:56:27;;;;;;;2.93;2.73;;;;;;;;;;5067722;28;20312;-60
2020/12/22 11:58:52;;;;;;;2.03;1.83;;;;;;;;;;5069258;28;21431;-61
2020/12/22 12:01:27;;;;;;;1.70;1.60;;;;;;;;;;5065477;28;20216;-61
2020/12/22 12:03:53;;;;;;;1.70;1.60;;;;;;;;;;5063230;28;20220;-61
2020/12/22 12:06:18;;;;;;;4.97;2.37;;;;;;;;;;5066288;28;20509;-61
2020/12/22 12:08:43;;;;;;;2.83;2.60;;;;;;;;;;5069462;28;20209;-61
2020/12/22 12:11:09;;;;;;;2.10;1.90;;;;;;;;;;5066055;28;20331;-60
2020/12/22 12:13:34;;;;;;;1.97;1.70;;;;;;;;;;5059187;28;20218;-60
2020/12/22 12:15:59;;;;;;;2.37;1.93;;;;;;;;;;5064066;28;20284;-61
2020/12/22 12:18:25;;;;;;;3.27;2.27;;;;;;;;;;5062459;28;20237;-60
2020/12/22 12:20:50;;;;;;;3.10;2.20;;;;;;;;;;5067988;28;20225;-61
2020/12/22 12:23:16;;;;;;;2.80;1.93;;;;;;;;;;5069734;28;20221;-61
2020/12/22 12:25:41;;;;;;;3.00;2.27;;;;;;;;;;5055233;28;20217;-61
2020/12/22 12:28:06;;;;;;;2.43;1.80;;;;;;;;;;5058524;28;20533;-61
2020/12/22 12:30:31;;;;;;;3.00;1.93;;;;;;;;;;5066225;28;20304;-61
2020/12/22 12:32:57;;;;;;;5.53;2.23;;;;;;;;;;5066224;28;20244;-63
2020/12/22 12:35:22;;;;;;;2.00;1.80;;;;;;;;;;5066118;28;20241;-62
2020/12/22 12:37:50;;;;;;;1.90;1.60;;;;;;;;;;5067744;28;20225;-65
2020/12/22 12:40:15;;;;;;;1.80;1.70;;;;;;;;;;5058311;28;20212;-63
2020/12/22 12:42:41;;;;;;;3.00;2.07;;;;;;;;;;5072528;28;20474;-61
2020/12/22 12:45:06;;;;;;;2.23;1.63;;;;;;;;;;5066271;28;20277;-61
2020/12/22 12:47:31;;;;;;;2.23;1.70;;;;;;;;;;5069040;28;20251;-61
2020/12/22 12:49:56;;;;;;;3.57;2.00;;;;;;;;;;5064831;28;20295;-61
2020/12/22 12:52:22;;;;;;;2.27;1.47;;;;;;;;;;5062168;28;20291;-60
2020/12/22 12:54:47;;;;;;;3.40;1.90;;;;;;;;;;5066605;28;20306;-61
2020/12/22 12:57:13;;;;;;;2.73;2.30;;;;;;;;;;5069333;28;20235;-61
2020/12/22 12:59:38;;;;;;;1.77;1.60;;;;;;;;;;5063620;28;20332;-61
2020/12/22 13:02:03;;;;;;;2.80;1.90;;;;;;;;;;5067181;28;20307;-61
2020/12/22 13:04:29;;;;;;;2.13;1.43;;;;;;;;;;5064461;28;20224;-61
2020/12/22 13:06:54;;;;;;;4.13;1.80;;;;;;;;;;5061864;28;20276;-61
2020/12/22 13:09:20;;;;;;;3.23;1.80;;;;;;;;;;5066576;28;20229;-61
2020/12/22 13:11:46;;;;;;;1.93;1.60;;;;;;;;;;5068395;28;20312;-62
2020/12/22 13:14:12;;;;;;;2.03;1.50;;;;;;;;;;5055584;28;20466;-60
2020/12/22 13:16:40;;;;;;;3.00;1.77;;;;;;;;;;5068917;28;20965;-61
2020/12/22 13:19:06;;;;;;;5.50;1.73;;;;;;;;;;5063522;28;20228;-61
2020/12/22 13:21:31;;;;;;;2.73;1.50;;;;;;;;;;5060248;28;20470;-61
2020/12/22 13:23:57;;;;;;;1.60;1.50;;;;;;;;;;5066583;28;20602;-61
2020/12/22 13:26:22;;;;;;;2.50;1.50;;;;;;;;;;5054392;28;20221;-61
2020/12/22 13:28:47;;;;;;;2.43;1.80;;;;;;;;;;5050030;28;20783;-62
2020/12/22 13:31:12;;;;;;;2.70;1.73;;;;;;;;;;5065021;28;20220;-61
2020/12/22 13:33:38;;;;;;;2.80;1.70;;;;;;;;;;5068153;28;20295;-61
2020/12/22 13:36:03;;;;;;;2.00;1.67;;;;;;;;;;5061516;28;20248;-61
2020/12/22 13:38:28;;;;;;;2.53;1.77;;;;;;;;;;5067608;28;20232;-61
2020/12/22 13:40:54;;;;;;;3.73;2.07;;;;;;;;;;5064687;28;20219;-61
2020/12/22 13:43:19;;;;;;;4.60;2.00;;;;;;;;;;5067862;28;20261;-60
2020/12/22 13:45:45;;;;;;;3.00;1.80;;;;;;;;;;5058156;28;20574;-60
2020/12/22 13:48:10;;;;;;;2.30;1.80;;;;;;;;;;5060506;28;20524;-61
2020/12/22 13:50:35;;;;;;;2.43;2.10;;;;;;;;;;5061901;28;20279;-61
2020/12/22 13:53:00;;;;;;;3.10;1.57;;;;;;;;;;5067030;28;20217;-61
2020/12/22 13:55:26;;;;;;;2.50;1.53;;;;;;;;;;5067747;28;20220;-60
2020/12/22 13:57:51;;;;;;;3.60;1.77;;;;;;;;;;5057588;28;20217;-61
2020/12/22 14:00:17;;;;;;;2.20;1.70;;;;;;;;;;5055296;28;20225;-61
2020/12/22 14:02:42;;;;;;;2.43;2.00;;;;;;;;;;5067537;28;20229;-60
2020/12/22 14:05:07;;;;;;;3.10;2.20;;;;;;;;;;5066440;28;20316;-60
2020/12/22 14:07:33;;;;;;;3.23;1.83;;;;;;;;;;5061252;28;20225;-61
2020/12/22 14:09:58;;;;;;;2.40;2.20;;;;;;;;;;5062836;28;20259;-61
2020/12/22 14:12:23;;;;;;;3.10;1.80;;;;;;;;;;5069973;28;20692;-60
2020/12/22 14:14:49;;;;;;;2.73;2.53;;;;;;;;;;5068389;28;20300;-61
2020/12/22 14:17:14;;;;;;;2.97;2.10;;;;;;;;;;5063153;28;20228;-61
2020/12/22 14:19:40;;;;;;;4.60;2.20;;;;;;;;;;5066167;28;20303;-61
2020/12/22 14:22:05;;;;;;;4.17;2.73;;;;;;;;;;5071848;28;20571;-61
2020/12/22 14:24:30;;;;;;;1.70;1.60;;;;;;;;;;5069997;28;20655;-61
2020/12/22 14:26:56;;;;;;;2.90;1.80;;;;;;;;;;5064328;28;20224;-62
2020/12/22 14:29:21;;;;;;;3.17;2.57;;;;;;;;;;5065688;28;20235;-61